Time;durP1;ratioP1;P1;durP2;ratioP2;P2;SDS_P1;SDS_P2;PMS_P1;PMS_P2;Temp;Humidity;BMP_temperature;BMP_pressure;BME280_temperature;BME280_humidity;BME280_pressure;Samples;Min_cycle;Max_cycle;Signal;HPM_P1;HPM_P2
2022/01/22 00:01:04;;;;;;;;;;;4.30;99.90;;;;;;4261233;33;44485;-79
2022/01/22 00:03:32;;;;;;;;;;;4.20;99.90;;;;;;4248121;33;43088;-80
2022/01/22 00:05:59;;;;;;;;;;;4.30;99.90;;;;;;4260958;33;44318;-80
2022/01/22 00:08:26;;;;;;;;;;;4.20;99.90;;;;;;4248429;33;43707;-79
2022/01/22 00:10:53;;;;;;;;;;;4.20;99.90;;;;;;4261242;33;37823;-79
2022/01/22 00:16:06;;;;;;;;;;;4.20;99.90;;;;;;4248076;33;44025;-80
2022/01/22 00:18:33;;;;;;;;;;;4.20;99.90;;;;;;4248217;33;41251;-79
2022/01/22 00:21:00;;;;;;;;;;;4.30;99.90;;;;;;4236067;33;38630;-80
2022/01/22 00:23:28;;;;;;;;;;;4.20;99.90;;;;;;4260443;33;43774;-79
2022/01/22 00:25:55;;;;;;;;;;;4.20;99.90;;;;;;4248149;33;33365;-80
2022/01/22 00:28:23;;;;;;;;;;;4.30;99.90;;;;;;4260447;33;42458;-80
2022/01/22 00:30:50;;;;;;;;;;;4.20;99.90;;;;;;4247752;33;43913;-79
2022/01/22 00:33:17;;;;;;;;;;;4.20;99.90;;;;;;4260784;33;44418;-79
2022/01/22 00:35:44;;;;;;;;;;;4.20;99.90;;;;;;4260839;33;32882;-79
2022/01/22 00:38:13;;;;;;;;;;;4.20;99.90;;;;;;4260726;33;44252;-80
2022/01/22 00:40:40;;;;;;;;;;;4.20;99.90;;;;;;4248134;33;43287;-79
2022/01/22 00:43:07;;;;;;;;;;;4.20;99.90;;;;;;4235614;33;46523;-80
2022/01/22 00:45:34;;;;;;;;;;;4.30;99.90;;;;;;4247475;33;43420;-79
2022/01/22 00:48:01;;;;;;;;;;;4.20;99.90;;;;;;4247740;33;41907;-79
2022/01/22 00:50:28;;;;;;;;;;;4.20;99.90;;;;;;4235866;33;44788;-79
2022/01/22 00:52:55;;;;;;;;;;;4.20;99.90;;;;;;4247046;33;42542;-80
2022/01/22 00:55:22;;;;;;;;;;;4.20;99.90;;;;;;4247313;33;41620;-79
2022/01/22 00:57:49;;;;;;;;;;;4.20;99.90;;;;;;4260217;33;44986;-79
2022/01/22 01:00:17;;;;;;;;;;;4.20;99.90;;;;;;4260277;33;44261;-79
2022/01/22 01:02:45;;;;;;;;;;;4.20;99.90;;;;;;4247099;33;44905;-80
2022/01/22 01:05:12;;;;;;;;;;;4.20;99.90;;;;;;4247664;33;43773;-79
2022/01/22 01:07:40;;;;;;;;;;;4.20;99.90;;;;;;4247398;33;44934;-80
2022/01/22 01:10:12;;;;;;;;;;;4.20;99.90;;;;;;4260036;33;42347;-79
2022/01/22 01:12:40;;;;;;;;;;;4.20;99.90;;;;;;4260536;33;43620;-79
2022/01/22 01:34:11;;;;;;;;;;;4.20;99.90;;;;;;4260088;33;45212;-80
2022/01/22 01:36:38;;;;;;;;;;;4.20;99.90;;;;;;4236031;33;23164;-80
2022/01/22 01:39:12;;;;;;;;;;;4.20;99.90;;;;;;4247855;33;20051;-79
2022/01/22 01:42:03;;;;;;;;;;;4.20;99.90;;;;;;4247431;33;39534;-79
2022/01/22 01:44:30;;;;;;;;;;;4.20;99.90;;;;;;4260237;33;35383;-79
2022/01/22 01:46:59;;;;;;;;;;;4.20;99.90;;;;;;4247235;33;33156;-80
2022/01/22 01:49:29;;;;;;;;;;;4.20;99.90;;;;;;4246543;33;44727;-80
2022/01/22 01:51:59;;;;;;;;;;;4.20;99.90;;;;;;4246854;33;36561;-80
2022/01/22 01:59:49;;;;;;;;;;;4.20;99.90;;;;;;4259881;33;20046;-80
2022/01/22 02:02:16;;;;;;;;;;;4.20;99.90;;;;;;4259685;33;40522;-79
2022/01/22 02:04:43;;;;;;;;;;;4.20;99.90;;;;;;4259281;33;42004;-79
2022/01/22 02:07:11;;;;;;;;;;;4.20;99.90;;;;;;4260782;33;20003;-79
2022/01/22 02:09:40;;;;;;;;;;;4.20;99.90;;;;;;4259733;33;33693;-80
2022/01/22 02:12:20;;;;;;;;;;;4.20;99.90;;;;;;4259557;33;39238;-80
2022/01/22 02:25:56;;;;;;;;;;;4.20;99.90;;;;;;4259618;33;40085;-80
2022/01/22 02:28:23;;;;;;;;;;;4.20;99.90;;;;;;4247611;33;20015;-79
2022/01/22 02:30:56;;;;;;;;;;;4.20;99.90;;;;;;4259331;33;40379;-80
2022/01/22 02:36:01;;;;;;;;;;;4.20;99.90;;;;;;4259344;33;26888;-80
2022/01/22 02:38:46;;;;;;;;;;;4.20;99.90;;;;;;4246732;33;26115;-79
2022/01/22 02:41:17;;;;;;;;;;;4.20;99.90;;;;;;4259258;33;34955;-80
2022/01/22 02:43:47;;;;;;;;;;;4.20;99.90;;;;;;4259441;33;33890;-80
2022/01/22 02:46:16;;;;;;;;;;;4.20;99.90;;;;;;4259497;33;30085;-79
2022/01/22 02:48:43;;;;;;;;;;;4.20;99.90;;;;;;4245886;33;37196;-80
2022/01/22 02:51:10;;;;;;;;;;;4.20;99.90;;;;;;4259332;33;33382;-80
2022/01/22 02:53:37;;;;;;;;;;;4.20;99.90;;;;;;4245836;33;40300;-80
2022/01/22 02:56:05;;;;;;;;;;;4.30;99.90;;;;;;4245662;33;40711;-79
2022/01/22 02:58:32;;;;;;;;;;;4.20;99.90;;;;;;4259194;33;34252;-80
2022/01/22 03:00:59;;;;;;;;;;;4.20;99.90;;;;;;4234307;33;33877;-80
2022/01/22 03:03:26;;;;;;;;;;;4.20;99.90;;;;;;4258701;33;31428;-80
2022/01/22 03:05:55;;;;;;;;;;;4.20;99.90;;;;;;4259234;33;32825;-80
2022/01/22 03:08:27;;;;;;;;;;;4.20;99.90;;;;;;4246145;33;30650;-80
2022/01/22 03:10:55;;;;;;;;;;;4.20;99.90;;;;;;4246167;33;38525;-80
2022/01/22 03:14:10;;;;;;;;;;;4.20;99.90;;;;;;4259252;33;32014;-80
2022/01/22 03:16:47;;;;;;;;;;;4.20;99.90;;;;;;4257356;33;43365;-79
2022/01/22 03:22:22;;;;;;;;;;;4.20;99.90;;;;;;4237462;33;20011;-79
2022/01/22 03:27:35;;;;;;;;;;;4.20;99.90;;;;;;4259285;33;20051;-80
2022/01/22 03:30:03;;;;;;;;;;;4.30;99.90;;;;;;4245981;33;26391;-80
2022/01/22 03:32:43;;;;;;;;;;;4.20;99.90;;;;;;4246149;33;33922;-79
2022/01/22 03:35:13;;;;;;;;;;;4.30;99.90;;;;;;4245989;33;40430;-79
2022/01/22 03:37:43;;;;;;;;;;;4.20;99.90;;;;;;4246271;33;20070;-79
2022/01/22 03:40:13;;;;;;;;;;;4.30;99.90;;;;;;4259316;33;20084;-80
2022/01/22 03:42:41;;;;;;;;;;;4.20;99.90;;;;;;4246547;33;20045;-80
2022/01/22 03:45:09;;;;;;;;;;;4.20;99.90;;;;;;4259766;33;20013;-80
2022/01/22 03:47:36;;;;;;;;;;;4.20;99.90;;;;;;4235068;33;20085;-79
2022/01/22 03:50:10;;;;;;;;;;;4.20;99.90;;;;;;4259809;33;20027;-79
2022/01/22 03:52:37;;;;;;;;;;;4.20;99.90;;;;;;4259549;33;20012;-80
2022/01/22 03:55:06;;;;;;;;;;;4.20;99.90;;;;;;4259330;33;20051;-80
2022/01/22 03:57:36;;;;;;;;;;;4.20;99.90;;;;;;4259593;33;20007;-80
2022/01/22 04:00:09;;;;;;;;;;;4.20;99.90;;;;;;4246256;33;20011;-79
2022/01/22 04:05:09;;;;;;;;;;;4.20;99.90;;;;;;4259650;33;20017;-80
2022/01/22 04:10:24;;;;;;;;;;;4.20;99.90;;;;;;4257017;33;45111;-80
2022/01/22 04:13:00;;;;;;;;;;;4.20;99.90;;;;;;4245816;33;30610;-80
2022/01/22 04:15:30;;;;;;;;;;;4.20;99.90;;;;;;4259015;33;20023;-79
2022/01/22 04:29:00;;;;;;;;;;;4.20;99.90;;;;;;4261694;33;20074;-79
2022/01/22 04:31:27;;;;;;;;;;;4.20;99.90;;;;;;4262099;33;20011;-79
2022/01/22 04:33:57;;;;;;;;;;;4.20;99.90;;;;;;4248913;33;20000;-80
2022/01/22 04:36:24;;;;;;;;;;;4.20;99.90;;;;;;4261376;33;20611;-79
2022/01/22 04:38:51;;;;;;;;;;;4.20;99.90;;;;;;4261677;33;20007;-79
2022/01/22 04:41:20;;;;;;;;;;;4.20;99.90;;;;;;4248762;33;20007;-79
2022/01/22 04:43:56;;;;;;;;;;;4.20;99.90;;;;;;4249178;33;20401;-80
2022/01/22 04:46:36;;;;;;;;;;;4.20;99.90;;;;;;4261918;33;20409;-79
2022/01/22 04:49:14;;;;;;;;;;;4.20;99.90;;;;;;4248760;33;20018;-80
2022/01/22 04:57:13;;;;;;;;;;;4.20;99.90;;;;;;4261589;33;20029;-80
2022/01/22 04:59:40;;;;;;;;;;;4.20;99.90;;;;;;4248171;33;20023;-80
2022/01/22 05:02:07;;;;;;;;;;;4.20;99.90;;;;;;4248500;33;20014;-80
2022/01/22 05:04:37;;;;;;;;;;;4.20;99.90;;;;;;4248502;33;20025;-79
2022/01/22 05:07:04;;;;;;;;;;;4.20;99.90;;;;;;4247858;33;20110;-79
2022/01/22 05:09:31;;;;;;;;;;;4.20;99.90;;;;;;4260541;33;20453;-80
2022/01/22 05:12:01;;;;;;;;;;;4.20;99.90;;;;;;4236325;33;20376;-80
2022/01/22 05:14:28;;;;;;;;;;;4.20;99.90;;;;;;4236694;33;19999;-80
2022/01/22 05:16:56;;;;;;;;;;;4.20;99.90;;;;;;4260926;33;20021;-80
2022/01/22 05:19:31;;;;;;;;;;;4.20;99.90;;;;;;4260803;33;20409;-80
2022/01/22 05:22:12;;;;;;;;;;;4.30;99.90;;;;;;4248045;33;19999;-80
2022/01/22 05:24:47;;;;;;;;;;;4.20;99.90;;;;;;4260868;33;21274;-80
2022/01/22 05:32:56;;;;;;;;;;;4.20;99.90;;;;;;4260754;33;23323;-80
2022/01/22 05:38:08;;;;;;;;;;;4.20;99.90;;;;;;4259835;33;24368;-80
2022/01/22 05:40:35;;;;;;;;;;;4.20;99.90;;;;;;4259923;33;31071;-80
2022/01/22 05:43:07;;;;;;;;;;;4.30;99.90;;;;;;4247978;33;20014;-79
2022/01/22 05:45:34;;;;;;;;;;;4.20;99.90;;;;;;4260150;33;20015;-80
2022/01/22 05:48:02;;;;;;;;;;;4.20;99.90;;;;;;4259631;33;32548;-80
2022/01/22 06:01:15;;;;;;;;;;;4.20;99.90;;;;;;4225885;33;20014;-80
2022/01/22 06:03:43;;;;;;;;;;;4.30;99.90;;;;;;4246888;33;20114;-80
2022/01/22 06:06:10;;;;;;;;;;;4.30;99.90;;;;;;4260429;33;20014;-80
2022/01/22 06:08:47;;;;;;;;;;;4.20;99.90;;;;;;4260563;33;20011;-80
2022/01/22 06:11:22;;;;;;;;;;;4.20;99.90;;;;;;4260390;33;20023;-80
2022/01/22 06:13:52;;;;;;;;;;;4.30;99.90;;;;;;4247876;33;20015;-79
2022/01/22 06:16:22;;;;;;;;;;;4.20;99.90;;;;;;4247765;33;20045;-79
2022/01/22 06:18:50;;;;;;;;;;;4.20;99.90;;;;;;4247038;33;23076;-80
2022/01/22 06:21:17;;;;;;;;;;;4.30;99.90;;;;;;4247641;33;20011;-80
2022/01/22 06:23:49;;;;;;;;;;;4.30;99.90;;;;;;4260245;33;20044;-79
2022/01/22 06:26:16;;;;;;;;;;;4.30;99.90;;;;;;4260669;33;20393;-79
2022/01/22 06:28:43;;;;;;;;;;;4.30;99.90;;;;;;4260055;33;20011;-79
2022/01/22 06:31:13;;;;;;;;;;;4.30;99.90;;;;;;4247721;33;20010;-80
2022/01/22 06:33:40;;;;;;;;;;;4.20;99.90;;;;;;4260387;33;20357;-80
2022/01/22 06:36:07;;;;;;;;;;;4.20;99.90;;;;;;4235089;33;20019;-80
2022/01/22 06:38:37;;;;;;;;;;;4.30;99.90;;;;;;4260270;33;20007;-80
2022/01/22 06:43:49;;;;;;;;;;;4.30;99.90;;;;;;4260145;33;20014;-79
2022/01/22 06:46:17;;;;;;;;;;;4.20;99.90;;;;;;4247456;33;20322;-80
2022/01/22 06:48:46;;;;;;;;;;;4.20;99.90;;;;;;4247048;33;20364;-80
2022/01/22 06:51:16;;;;;;;;;;;4.30;99.90;;;;;;4247620;33;20016;-80
2022/01/22 06:53:48;;;;;;;;;;;4.30;99.90;;;;;;4247396;33;20012;-80
2022/01/22 06:56:20;;;;;;;;;;;4.30;99.90;;;;;;4247160;33;19999;-79
2022/01/22 06:58:48;;;;;;;;;;;4.30;99.90;;;;;;4247419;33;20011;-80
2022/01/22 07:01:18;;;;;;;;;;;4.30;99.90;;;;;;4260010;33;20016;-80
2022/01/22 07:03:46;;;;;;;;;;;4.30;99.90;;;;;;4259227;33;20015;-79
2022/01/22 07:06:16;;;;;;;;;;;4.30;99.90;;;;;;4259791;33;20021;-79
2022/01/22 07:08:43;;;;;;;;;;;4.30;99.90;;;;;;4246702;33;20424;-79
2022/01/22 07:11:11;;;;;;;;;;;4.30;99.90;;;;;;4259966;33;20007;-79
2022/01/22 07:13:38;;;;;;;;;;;4.30;99.90;;;;;;4246972;33;19995;-79
2022/01/22 07:16:06;;;;;;;;;;;4.30;99.90;;;;;;4259541;33;20364;-80
2022/01/22 07:18:38;;;;;;;;;;;4.30;99.90;;;;;;4260298;33;20067;-79
2022/01/22 07:21:23;;;;;;;;;;;4.30;99.90;;;;;;4246351;33;20412;-79
2022/01/22 07:24:22;;;;;;;;;;;4.30;99.90;;;;;;4259581;33;20015;-80
2022/01/22 07:26:40;;;;;;;;;;;4.30;99.90;;;;;;4259771;33;20013;-80
2022/01/22 07:29:11;;;;;;;;;;;4.30;99.90;;;;;;4259785;33;20368;-79
2022/01/22 07:31:41;;;;;;;;;;;4.20;99.90;;;;;;4247136;33;20389;-79
2022/01/22 07:34:08;;;;;;;;;;;4.30;99.90;;;;;;4259348;33;20019;-79
2022/01/22 07:36:35;;;;;;;;;;;4.30;99.90;;;;;;4246657;33;20043;-80
2022/01/22 07:39:03;;;;;;;;;;;4.30;99.90;;;;;;4259920;33;20497;-80
2022/01/22 07:41:33;;;;;;;;;;;4.30;99.90;;;;;;4259574;33;20022;-79
2022/01/22 07:44:01;;;;;;;;;;;4.30;99.90;;;;;;4234800;33;20068;-80
2022/01/22 07:46:30;;;;;;;;;;;4.30;99.90;;;;;;4259539;33;20360;-80
2022/01/22 07:49:05;;;;;;;;;;;4.30;99.90;;;;;;4234726;33;20014;-80
2022/01/22 07:51:32;;;;;;;;;;;4.30;99.90;;;;;;4259536;33;20421;-79
2022/01/22 07:54:00;;;;;;;;;;;4.30;99.90;;;;;;4246541;33;20029;-79
2022/01/22 07:56:28;;;;;;;;;;;4.30;99.90;;;;;;4246465;33;20019;-80
2022/01/22 07:58:57;;;;;;;;;;;4.30;99.90;;;;;;4246484;33;20019;-80
2022/01/22 08:01:24;;;;;;;;;;;4.30;99.90;;;;;;4246505;33;20004;-80
2022/01/22 08:03:53;;;;;;;;;;;4.30;99.90;;;;;;4248951;33;20025;-80
2022/01/22 08:06:23;;;;;;;;;;;4.30;99.90;;;;;;4249080;33;20027;-79
2022/01/22 08:08:50;;;;;;;;;;;4.30;99.90;;;;;;4248098;33;43447;-80
2022/01/22 08:11:17;;;;;;;;;;;4.30;99.90;;;;;;4260842;33;39928;-80
2022/01/22 08:13:44;;;;;;;;;;;4.30;99.90;;;;;;4248029;33;34940;-79
2022/01/22 08:16:11;;;;;;;;;;;4.30;99.90;;;;;;4261156;33;40704;-80
2022/01/22 08:18:41;;;;;;;;;;;4.30;99.90;;;;;;4249158;33;20015;-80
2022/01/22 08:21:08;;;;;;;;;;;4.30;99.90;;;;;;4261007;33;43804;-79
2022/01/22 08:23:35;;;;;;;;;;;4.30;99.90;;;;;;4260985;33;44497;-80
2022/01/22 08:26:07;;;;;;;;;;;4.30;99.90;;;;;;4236118;33;44411;-80
2022/01/22 08:29:01;;;;;;;;;;;4.30;99.90;;;;;;4247775;33;44402;-80
2022/01/22 08:36:46;;;;;;;;;;;4.30;99.90;;;;;;4261632;33;20022;-80
2022/01/22 08:39:15;;;;;;;;;;;4.30;99.90;;;;;;4261234;33;20440;-86
2022/01/22 08:41:42;;;;;;;;;;;4.30;99.90;;;;;;4262161;33;20004;-88
2022/01/22 08:44:10;;;;;;;;;;;4.30;99.90;;;;;;4237599;33;20015;-88
2022/01/22 08:46:40;;;;;;;;;;;4.30;99.90;;;;;;4249015;33;38988;-89
2022/01/22 08:49:08;;;;;;;;;;;4.30;99.90;;;;;;4260752;33;40855;-89
2022/01/22 08:51:38;;;;;;;;;;;4.30;99.90;;;;;;4248535;33;33003;-88
2022/01/22 08:54:06;;;;;;;;;;;4.30;99.90;;;;;;4259775;33;41531;-89
2022/01/22 08:56:33;;;;;;;;;;;4.30;99.90;;;;;;4262182;33;20502;-89
2022/01/22 08:59:00;;;;;;;;;;;4.30;99.90;;;;;;4236322;33;40888;-89
2022/01/22 09:01:27;;;;;;;;;;;4.30;99.90;;;;;;4236411;33;37953;-88
2022/01/22 09:03:55;;;;;;;;;;;4.30;99.90;;;;;;4237742;33;20047;-89
2022/01/22 09:06:25;;;;;;;;;;;4.30;99.90;;;;;;4261816;33;20378;-88
2022/01/22 09:09:06;;;;;;;;;;;4.30;99.90;;;;;;4248290;33;38146;-89
2022/01/22 09:11:33;;;;;;;;;;;4.30;99.90;;;;;;4248761;33;26432;-89
2022/01/22 09:14:01;;;;;;;;;;;4.30;99.90;;;;;;4248406;33;20007;-88
2022/01/22 09:16:28;;;;;;;;;;;4.30;99.90;;;;;;4247879;33;37432;-88
2022/01/22 09:19:00;;;;;;;;;;;4.30;99.90;;;;;;4247799;33;35842;-88
2022/01/22 09:21:27;;;;;;;;;;;4.30;99.90;;;;;;4248124;33;42546;-88
2022/01/22 09:23:54;;;;;;;;;;;4.30;99.90;;;;;;4247875;33;36275;-88
2022/01/22 09:26:21;;;;;;;;;;;4.30;99.90;;;;;;4248099;33;31442;-88
2022/01/22 09:28:49;;;;;;;;;;;4.30;99.90;;;;;;4247516;33;38985;-88
2022/01/22 09:31:17;;;;;;;;;;;4.30;99.90;;;;;;4247444;33;42577;-88
2022/01/22 09:33:44;;;;;;;;;;;4.30;99.90;;;;;;4259471;33;44577;-88
2022/01/22 09:36:11;;;;;;;;;;;4.30;99.90;;;;;;4248907;33;20018;-87
2022/01/22 09:38:38;;;;;;;;;;;4.40;99.90;;;;;;4260545;33;35857;-89
2022/01/22 09:41:06;;;;;;;;;;;4.30;99.90;;;;;;4247801;33;34421;-89
2022/01/22 09:43:33;;;;;;;;;;;4.30;99.90;;;;;;4247616;33;38210;-88
2022/01/22 09:46:03;;;;;;;;;;;4.40;99.90;;;;;;4260895;33;32292;-88
2022/01/22 09:48:30;;;;;;;;;;;4.40;99.90;;;;;;4247660;33;38095;-88
2022/01/22 09:50:57;;;;;;;;;;;4.40;99.90;;;;;;4246965;33;45034;-89
2022/01/22 09:53:24;;;;;;;;;;;4.40;99.90;;;;;;4247554;33;39097;-88
2022/01/22 09:55:51;;;;;;;;;;;4.40;99.90;;;;;;4259947;33;38918;-88
2022/01/22 09:58:18;;;;;;;;;;;4.40;99.90;;;;;;4247571;33;25276;-88
2022/01/22 10:00:45;;;;;;;;;;;4.40;99.90;;;;;;4259223;33;36696;-88
2022/01/22 10:03:15;;;;;;;;;;;4.40;99.90;;;;;;4247144;33;42048;-88
2022/01/22 10:05:42;;;;;;;;;;;4.40;99.90;;;;;;4247095;33;32339;-88
2022/01/22 10:08:18;;;;;;;;;;;4.40;99.90;;;;;;4260179;33;31640;-89
2022/01/22 10:10:46;;;;;;;;;;;4.40;99.90;;;;;;4261065;33;20011;-88
2022/01/22 10:13:14;;;;;;;;;;;4.40;99.90;;;;;;4236485;33;20062;-87
2022/01/22 10:15:41;;;;;;;;;;;4.40;99.90;;;;;;4247870;33;20086;-88
2022/01/22 10:18:08;;;;;;;;;;;4.40;99.90;;;;;;4261089;33;20019;-88
2022/01/22 10:20:37;;;;;;;;;;;4.40;99.90;;;;;;4247684;33;20022;-88
2022/01/22 10:23:09;;;;;;;;;;;4.40;99.90;;;;;;4248011;33;20086;-88
2022/01/22 10:25:42;;;;;;;;;;;4.40;99.90;;;;;;4259854;33;20026;-88
2022/01/22 10:28:14;;;;;;;;;;;4.40;99.90;;;;;;4236469;33;20025;-88
2022/01/22 10:30:43;;;;;;;;;;;4.40;99.90;;;;;;4236219;33;20013;-88
2022/01/22 10:33:28;;;;;;;;;;;4.40;99.90;;;;;;4259409;33;20000;-88
2022/01/22 10:36:14;;;;;;;;;;;4.40;99.90;;;;;;4260189;33;20514;-88
2022/01/22 10:38:44;;;;;;;;;;;4.40;99.90;;;;;;4248108;33;20016;-88
2022/01/22 10:41:12;;;;;;;;;;;4.40;99.90;;;;;;4235722;33;19999;-88
2022/01/22 10:43:44;;;;;;;;;;;4.40;99.90;;;;;;4247888;33;20023;-88
2022/01/22 10:46:19;;;;;;;;;;;4.40;99.90;;;;;;4236218;33;20019;-88
2022/01/22 10:49:07;;;;;;;;;;;4.40;99.90;;;;;;4248186;33;20054;-88
2022/01/22 10:51:48;;;;;;;;;;;4.40;99.90;;;;;;4236129;33;20013;-88
2022/01/22 10:54:16;;;;;;;;;;;4.40;99.90;;;;;;4247130;33;20026;-88
2022/01/22 10:56:44;;;;;;;;;;;4.50;99.90;;;;;;4246946;33;20098;-88
2022/01/22 10:59:17;;;;;;;;;;;4.50;99.90;;;;;;4247499;33;20413;-88
2022/01/22 11:01:51;;;;;;;;;;;4.50;99.90;;;;;;4260511;33;20067;-87
2022/01/22 11:04:20;;;;;;;;;;;4.50;99.90;;;;;;4260433;33;20025;-88
2022/01/22 11:06:52;;;;;;;;;;;4.50;99.90;;;;;;4235580;33;20025;-88
2022/01/22 11:09:39;;;;;;;;;;;4.50;99.90;;;;;;4259247;33;25206;-89
2022/01/22 11:12:07;;;;;;;;;;;4.50;99.90;;;;;;4259091;33;36305;-89
2022/01/22 11:14:36;;;;;;;;;;;4.50;99.90;;;;;;4259349;33;26586;-89
2022/01/22 11:17:05;;;;;;;;;;;4.50;99.90;;;;;;4246810;33;29589;-88
2022/01/22 11:19:33;;;;;;;;;;;4.50;99.90;;;;;;4259470;33;38205;-90
2022/01/22 11:22:04;;;;;;;;;;;4.50;99.90;;;;;;4246703;33;36413;-89
2022/01/22 11:24:36;;;;;;;;;;;4.50;99.90;;;;;;4246082;33;38670;-88
2022/01/22 11:27:05;;;;;;;;;;;4.50;99.90;;;;;;4245879;33;44071;-89
2022/01/22 11:29:35;;;;;;;;;;;4.50;99.90;;;;;;4246635;33;36525;-88
2022/01/22 11:32:08;;;;;;;;;;;4.50;99.90;;;;;;4246341;33;38761;-88
2022/01/22 11:34:36;;;;;;;;;;;4.50;99.90;;;;;;4246437;33;42130;-90
2022/01/22 11:37:10;;;;;;;;;;;4.50;99.90;;;;;;4260762;33;20070;-88
2022/01/22 11:39:37;;;;;;;;;;;4.50;99.90;;;;;;4263214;33;20007;-88
2022/01/22 11:42:08;;;;;;;;;;;4.50;99.90;;;;;;4262813;33;20082;-88
2022/01/22 11:44:50;;;;;;;;;;;4.60;99.90;;;;;;4250019;33;20014;-88
2022/01/22 11:47:25;;;;;;;;;;;4.60;99.90;;;;;;4250813;33;20058;-88
2022/01/22 11:50:09;;;;;;;;;;;4.60;99.90;;;;;;4262583;33;20034;-89
2022/01/22 11:52:41;;;;;;;;;;;4.60;99.90;;;;;;4262765;33;20016;-89
2022/01/22 11:55:12;;;;;;;;;;;4.60;99.90;;;;;;4250450;33;20074;-88
2022/01/22 11:57:40;;;;;;;;;;;4.60;99.90;;;;;;4250427;33;20442;-88
2022/01/22 12:00:20;;;;;;;;;;;4.60;99.90;;;;;;4249779;33;20013;-88
2022/01/22 12:03:06;;;;;;;;;;;4.60;99.90;;;;;;4262065;33;20049;-88
2022/01/22 12:05:53;;;;;;;;;;;4.60;99.90;;;;;;4249815;33;20008;-88
2022/01/22 12:08:24;;;;;;;;;;;4.60;99.90;;;;;;4237651;33;20004;-88
2022/01/22 12:14:28;;;;;;;;;;;4.60;99.90;;;;;;4262682;33;20019;-88
2022/01/22 12:16:42;;;;;;;;;;;4.60;99.90;;;;;;4262045;33;28091;-88
2022/01/22 12:19:31;;;;;;;;;;;4.60;99.90;;;;;;4250263;33;20021;-88
2022/01/22 12:21:58;;;;;;;;;;;4.60;99.90;;;;;;4249817;33;20015;-88
2022/01/22 12:24:34;;;;;;;;;;;4.60;99.90;;;;;;4249843;33;20025;-89
2022/01/22 12:27:04;;;;;;;;;;;4.60;99.90;;;;;;4261276;33;20008;-89
2022/01/22 12:29:40;;;;;;;;;;;4.70;99.90;;;;;;4250010;33;20013;-88
2022/01/22 12:32:16;;;;;;;;;;;4.60;99.90;;;;;;4237777;33;20048;-88
2022/01/22 12:35:11;;;;;;;;;;;4.60;99.90;;;;;;4249678;33;20021;-88
2022/01/22 12:37:42;;;;;;;;;;;4.60;99.90;;;;;;4248082;33;20035;-88
2022/01/22 12:40:12;;;;;;;;;;;4.60;99.90;;;;;;4262541;33;20356;-88
2022/01/22 12:42:48;;;;;;;;;;;4.70;99.90;;;;;;4262789;33;20435;-88
2022/01/22 12:45:22;;;;;;;;;;;4.60;99.90;;;;;;4237820;33;20000;-88
2022/01/22 12:47:55;;;;;;;;;;;4.70;99.90;;;;;;4248719;33;20072;-88
2022/01/22 12:50:24;;;;;;;;;;;4.70;99.90;;;;;;4249517;33;20030;-88
2022/01/22 12:52:55;;;;;;;;;;;4.60;99.90;;;;;;4261926;33;20007;-88
2022/01/22 12:55:28;;;;;;;;;;;4.70;99.90;;;;;;4249454;33;20029;-88
2022/01/22 12:58:00;;;;;;;;;;;4.70;99.90;;;;;;4250015;33;20016;-88
2022/01/22 13:00:30;;;;;;;;;;;4.70;99.90;;;;;;4262336;33;20059;-88
2022/01/22 13:03:00;;;;;;;;;;;4.70;99.90;;;;;;4261693;33;20012;-88
2022/01/22 13:05:28;;;;;;;;;;;4.70;99.90;;;;;;4261957;33;20049;-88
2022/01/22 13:07:58;;;;;;;;;;;4.70;99.90;;;;;;4261962;33;20405;-88
2022/01/22 13:10:33;;;;;;;;;;;4.70;99.90;;;;;;4249316;33;20518;-88
2022/01/22 13:13:00;;;;;;;;;;;4.70;99.90;;;;;;4262057;33;20021;-88
2022/01/22 13:15:28;;;;;;;;;;;4.70;99.90;;;;;;4249447;33;20011;-88
2022/01/22 13:17:57;;;;;;;;;;;4.70;99.90;;;;;;4248943;33;20021;-88
2022/01/22 13:20:35;;;;;;;;;;;4.70;99.90;;;;;;4249182;33;20406;-89
2022/01/22 13:23:15;;;;;;;;;;;4.80;99.90;;;;;;4262007;33;20015;-89
2022/01/22 13:25:45;;;;;;;;;;;4.70;99.90;;;;;;4249201;33;20435;-89
2022/01/22 13:28:16;;;;;;;;;;;4.70;99.90;;;;;;4248615;33;20053;-88
2022/01/22 13:30:53;;;;;;;;;;;4.70;99.90;;;;;;4261913;33;20330;-89
2022/01/22 13:33:34;;;;;;;;;;;4.70;99.90;;;;;;4248865;33;20010;-88
2022/01/22 13:38:58;;;;;;;;;;;4.80;99.90;;;;;;4248314;33;20007;-89
2022/01/22 13:49:45;;;;;;;;;;;4.80;99.90;;;;;;4260872;33;40531;-88
2022/01/22 13:52:15;;;;;;;;;;;4.80;99.90;;;;;;4247715;33;33019;-89
2022/01/22 13:54:44;;;;;;;;;;;4.80;99.90;;;;;;4260307;33;38489;-88
2022/01/22 13:57:15;;;;;;;;;;;4.80;99.90;;;;;;4259891;33;28059;-89
2022/01/22 13:59:44;;;;;;;;;;;4.80;99.90;;;;;;4247180;33;28970;-88
2022/01/22 14:05:08;;;;;;;;;;;4.80;99.90;;;;;;4258859;33;38912;-88
2022/01/22 14:07:44;;;;;;;;;;;4.80;99.90;;;;;;4247369;33;36811;-89
2022/01/22 14:10:16;;;;;;;;;;;4.80;99.90;;;;;;4261551;33;20025;-88
2022/01/22 14:12:59;;;;;;;;;;;4.80;99.90;;;;;;4260523;33;22867;-88
2022/01/22 14:15:29;;;;;;;;;;;4.80;99.90;;;;;;4260409;33;38476;-88
2022/01/22 14:21:16;;;;;;;;;;;4.80;99.90;;;;;;4252267;33;20384;-89
2022/01/22 14:23:44;;;;;;;;;;;4.80;99.90;;;;;;4236231;33;20003;-89
2022/01/22 14:26:25;;;;;;;;;;;4.80;99.90;;;;;;4260744;33;27432;-90
2022/01/22 14:29:09;;;;;;;;;;;4.80;99.90;;;;;;4261182;33;20023;-89
2022/01/22 14:31:39;;;;;;;;;;;4.80;99.90;;;;;;4247756;33;22182;-88
2022/01/22 14:34:07;;;;;;;;;;;4.80;99.90;;;;;;4247222;33;33666;-88
2022/01/22 14:36:38;;;;;;;;;;;4.80;99.90;;;;;;4247001;33;29927;-87
2022/01/22 14:44:37;;;;;;;;;;;4.80;99.90;;;;;;4259536;33;40776;-88
2022/01/22 14:47:18;;;;;;;;;;;4.80;99.90;;;;;;4246484;33;42176;-89
2022/01/22 14:49:50;;;;;;;;;;;4.80;99.90;;;;;;4246449;33;35870;-87
2022/01/22 14:52:22;;;;;;;;;;;4.80;99.90;;;;;;4234280;33;40980;-82
2022/01/22 14:54:50;;;;;;;;;;;4.80;99.90;;;;;;4246266;33;27178;-82
2022/01/22 14:57:25;;;;;;;;;;;4.80;99.90;;;;;;4246162;33;24322;-84
2022/01/22 14:59:52;;;;;;;;;;;4.80;99.90;;;;;;4245789;33;43636;-82
2022/01/22 15:02:22;;;;;;;;;;;4.90;99.90;;;;;;4258745;33;25442;-82
2022/01/22 15:04:50;;;;;;;;;;;4.80;99.90;;;;;;4259131;33;34029;-82
2022/01/22 15:07:18;;;;;;;;;;;4.80;99.90;;;;;;4246330;33;37353;-82
2022/01/22 15:09:46;;;;;;;;;;;4.80;99.90;;;;;;4246383;33;27921;-82
2022/01/22 15:12:13;;;;;;;;;;;4.80;99.90;;;;;;4258668;33;39981;-82
2022/01/22 15:14:41;;;;;;;;;;;4.90;99.90;;;;;;4259123;33;37469;-82
2022/01/22 15:19:36;;;;;;;;;;;4.90;99.90;;;;;;4258663;33;44397;-82
2022/01/22 15:22:04;;;;;;;;;;;4.80;99.90;;;;;;4258587;33;43811;-82
2022/01/22 15:24:31;;;;;;;;;;;4.80;99.90;;;;;;4258393;33;37813;-82
2022/01/22 15:26:58;;;;;;;;;;;4.90;99.90;;;;;;4245353;33;43786;-82
2022/01/22 15:29:29;;;;;;;;;;;4.90;99.90;;;;;;4233643;33;46858;-83
2022/01/22 15:34:57;;;;;;;;;;;4.80;99.90;;;;;;4258790;33;44504;-82
2022/01/22 15:37:26;;;;;;;;;;;4.90;99.90;;;;;;4258829;33;33565;-82
2022/01/22 15:39:53;;;;;;;;;;;4.80;99.90;;;;;;4259116;33;35748;-82
2022/01/22 15:42:20;;;;;;;;;;;4.80;99.90;;;;;;4258947;33;20047;-82
2022/01/22 15:44:48;;;;;;;;;;;4.80;99.90;;;;;;4246793;33;20039;-82
2022/01/22 15:47:21;;;;;;;;;;;4.90;99.90;;;;;;4245289;33;40330;-82
2022/01/22 15:49:55;;;;;;;;;;;4.80;99.90;;;;;;4259004;33;29676;-81
2022/01/22 15:52:23;;;;;;;;;;;4.80;99.90;;;;;;4258681;33;35474;-82
2022/01/22 15:54:53;;;;;;;;;;;4.80;99.90;;;;;;4258629;33;44632;-82
2022/01/22 15:57:22;;;;;;;;;;;4.80;99.90;;;;;;4258178;33;37961;-82
2022/01/22 15:59:52;;;;;;;;;;;4.80;99.90;;;;;;4259559;33;20012;-82
2022/01/22 16:02:20;;;;;;;;;;;4.80;99.90;;;;;;4245198;33;36463;-81
2022/01/22 16:04:52;;;;;;;;;;;4.80;99.90;;;;;;4246329;33;20019;-82
2022/01/22 16:07:23;;;;;;;;;;;4.80;99.90;;;;;;4246676;33;20416;-82
2022/01/22 16:10:12;;;;;;;;;;;4.80;99.90;;;;;;4248289;33;29169;-82
2022/01/22 16:12:39;;;;;;;;;;;4.80;99.90;;;;;;4259272;33;20006;-81
2022/01/22 16:15:09;;;;;;;;;;;4.80;99.90;;;;;;4247228;33;20014;-82
2022/01/22 16:17:36;;;;;;;;;;;4.80;99.90;;;;;;4259107;33;20439;-82
2022/01/22 16:20:04;;;;;;;;;;;4.80;99.90;;;;;;4245905;33;34176;-82
2022/01/22 16:22:31;;;;;;;;;;;4.90;99.90;;;;;;4258701;33;43634;-82
2022/01/22 16:24:59;;;;;;;;;;;4.80;99.90;;;;;;4248727;33;28115;-82
2022/01/22 16:27:29;;;;;;;;;;;4.90;99.90;;;;;;4261299;33;30552;-82
2022/01/22 16:29:57;;;;;;;;;;;4.90;99.90;;;;;;4260473;33;43120;-82
2022/01/22 16:32:25;;;;;;;;;;;4.80;99.90;;;;;;4247477;33;46705;-82
2022/01/22 16:34:53;;;;;;;;;;;4.80;99.90;;;;;;4247953;33;23862;-82
2022/01/22 16:37:20;;;;;;;;;;;4.90;99.90;;;;;;4248996;33;19999;-82
2022/01/22 16:39:53;;;;;;;;;;;4.80;99.90;;;;;;4260860;33;40709;-82
2022/01/22 16:42:21;;;;;;;;;;;4.80;99.90;;;;;;4261945;33;20499;-82
2022/01/22 16:58:10;;;;;;;;;;;4.90;99.90;;;;;;4251187;33;31013;-82
2022/01/22 17:00:46;;;;;;;;;;;4.80;99.90;;;;;;4247612;33;42192;-82
2022/01/22 17:03:27;;;;;;;;;;;4.80;99.90;;;;;;4260325;33;31859;-81
2022/01/22 17:05:55;;;;;;;;;;;4.90;99.90;;;;;;4248089;33;36294;-82
2022/01/22 17:08:36;;;;;;;;;;;4.90;99.90;;;;;;4247808;33;45215;-81
2022/01/22 17:11:13;;;;;;;;;;;4.80;99.90;;;;;;4236609;33;45637;-82